createdAt,value
2022-09-26T00:02:01.485Z,44.33
2022-09-26T00:04:32.948Z,45.00
2022-09-26T00:07:02.632Z,46.00
2022-09-26T00:09:31.959Z,46.00
2022-09-26T00:12:03.602Z,50.33
2022-09-26T00:14:33.198Z,46.75
2022-09-26T00:17:02.608Z,48.33
2022-09-26T00:19:32.016Z,43.75
2022-09-26T00:22:03.061Z,44.50
2022-09-26T00:24:32.531Z,45.50
2022-09-26T00:27:02.156Z,42.00
2022-09-26T00:29:31.551Z,45.33
2022-09-26T00:32:02.923Z,40.75
2022-09-26T00:34:32.591Z,42.75
2022-09-26T00:37:03.129Z,43.00
2022-09-26T00:39:32.517Z,45.00
2022-09-26T00:42:02.601Z,44.00
2022-09-26T00:44:52.186Z,42.50
2022-09-26T00:47:41.593Z,42.75
2022-09-26T00:50:14.590Z,44.67
2022-09-26T00:52:47.101Z,42.75
2022-09-26T00:55:19.121Z,45.67
2022-09-26T00:57:56.605Z,44.00
2022-09-26T01:00:26.263Z,46.00
2022-09-26T01:02:55.781Z,44.25
2022-09-26T01:05:25.793Z,42.75
2022-09-26T01:07:55.793Z,42.25
2022-09-26T01:10:25.839Z,40.75
2022-09-26T01:12:57.169Z,40.50
2022-09-26T01:15:26.756Z,43.25
2022-09-26T01:17:56.396Z,43.25
2022-09-26T01:20:31.001Z,42.25
2022-09-26T01:23:05.965Z,42.50
2022-09-26T01:26:01.336Z,42.00
2022-09-26T01:28:54.583Z,44.67
2022-09-26T01:31:27.144Z,43.75
2022-09-26T01:33:59.906Z,44.50
2022-09-26T01:36:42.976Z,42.75
2022-09-26T01:39:39.112Z,44.25
2022-09-26T01:42:23.894Z,43.25
2022-09-26T01:44:53.328Z,41.00
2022-09-26T01:47:33.156Z,41.75
2022-09-26T01:50:03.225Z,40.50
2022-09-26T01:52:38.458Z,42.25
2022-09-26T01:55:10.713Z,38.00
2022-09-26T01:58:00.286Z,41.50
2022-09-26T02:00:32.984Z,40.00
2022-09-26T02:03:06.154Z,40.50
2022-09-26T02:05:48.671Z,40.50
2022-09-26T02:08:25.854Z,38.75
2022-09-26T02:11:03.562Z,40.00
2022-09-26T02:13:43.506Z,40.75
2022-09-26T02:16:16.441Z,38.50
2022-09-26T02:18:49.146Z,38.25
2022-09-26T02:21:21.135Z,40.00
2022-09-26T02:23:51.370Z,39.00
2022-09-26T02:26:23.949Z,38.00
2022-09-26T02:28:54.058Z,36.00
2022-09-26T02:31:27.593Z,37.50
2022-09-26T02:33:57.451Z,35.50
2022-09-26T02:36:29.468Z,38.25
2022-09-26T02:38:58.798Z,37.50
2022-09-26T02:41:58.876Z,33.75
2022-09-26T02:44:46.253Z,37.75
2022-09-26T02:47:28.174Z,34.75
2022-09-26T02:50:10.129Z,35.25
2022-09-26T02:52:54.732Z,36.50
2022-09-26T02:55:41.843Z,34.50
2022-09-26T02:58:18.664Z,33.75
2022-09-26T03:01:06.395Z,33.00
2022-09-26T03:03:45.014Z,33.50
2022-09-26T03:06:16.982Z,33.00
2022-09-26T03:08:49.313Z,33.00
2022-09-26T03:11:27.390Z,32.50
2022-09-26T03:13:58.029Z,32.75
2022-09-26T03:16:30.395Z,32.50
2022-09-26T03:19:08.035Z,32.00
2022-09-26T03:21:37.899Z,33.25
2022-09-26T03:24:07.948Z,33.75
2022-09-26T03:26:38.012Z,31.75
2022-09-26T03:29:07.700Z,32.50
2022-09-26T03:31:38.148Z,32.50
2022-09-26T03:34:09.083Z,32.75
2022-09-26T03:36:41.148Z,33.25
2022-09-26T03:39:16.282Z,31.00
2022-09-26T03:42:03.887Z,32.25
2022-09-26T03:44:34.935Z,32.50
2022-09-26T03:47:04.777Z,32.00
2022-09-26T03:49:40.338Z,31.50
2022-09-26T03:52:15.107Z,32.00
2022-09-26T03:54:46.449Z,32.50
2022-09-26T03:57:18.266Z,31.00
2022-09-26T04:00:04.046Z,32.00
2022-09-26T04:02:45.482Z,32.50
2022-09-26T04:05:35.349Z,31.50
2022-09-26T04:08:05.340Z,32.00
2022-09-26T04:10:35.403Z,32.00
2022-09-26T04:13:04.983Z,32.00
2022-09-26T04:15:34.416Z,31.00
2022-09-26T04:18:08.419Z,32.00
2022-09-26T04:20:38.967Z,32.00
2022-09-26T04:23:08.579Z,32.00
2022-09-26T04:25:39.190Z,32.00
2022-09-26T04:28:09.507Z,33.00
2022-09-26T04:30:38.872Z,32.25
2022-09-26T04:33:08.425Z,32.75
2022-09-26T04:35:38.246Z,33.00
2022-09-26T04:38:10.095Z,30.50
2022-09-26T04:40:42.819Z,31.00
2022-09-26T04:43:14.335Z,33.75
2022-09-26T04:45:44.546Z,34.00
2022-09-26T04:48:15.418Z,33.50
2022-09-26T04:51:09.935Z,33.00
2022-09-26T04:53:40.666Z,32.50
2022-09-26T04:56:23.185Z,33.00
2022-09-26T04:58:52.865Z,32.00
2022-09-26T05:01:22.834Z,32.00
2022-09-26T05:04:11.265Z,33.50
2022-09-26T05:06:41.031Z,31.00
2022-09-26T05:09:17.259Z,32.75
2022-09-26T05:11:54.607Z,33.00
2022-09-26T05:14:23.935Z,32.00
2022-09-26T05:16:54.983Z,32.75
2022-09-26T05:19:25.530Z,34.50
2022-09-26T05:22:13.177Z,32.75
2022-09-26T05:25:00.709Z,32.50
2022-09-26T05:27:30.195Z,33.00
2022-09-26T05:29:59.562Z,32.00
2022-09-26T05:32:30.326Z,32.00
2022-09-26T05:35:00.035Z,33.25
2022-09-26T05:37:32.301Z,32.75
2022-09-26T05:40:20.605Z,34.00
2022-09-26T05:42:53.739Z,32.75
2022-09-26T05:45:24.378Z,32.00
2022-09-26T05:47:54.905Z,33.00
2022-09-26T05:50:25.894Z,33.00
2022-09-26T05:52:59.381Z,33.00
2022-09-26T05:55:31.657Z,33.00
2022-09-26T05:58:03.845Z,32.00
2022-09-26T06:01:02.772Z,32.50
2022-09-26T06:03:35.765Z,32.25
2022-09-26T06:06:19.064Z,33.00
2022-09-26T06:08:50.306Z,32.00
2022-09-26T06:11:28.801Z,33.25
2022-09-26T06:13:59.913Z,34.00
2022-09-26T06:16:29.740Z,33.00
2022-09-26T06:18:59.888Z,33.00
2022-09-26T06:21:29.392Z,34.00
2022-09-26T06:24:05.864Z,33.00
2022-09-26T06:26:35.256Z,33.00
2022-09-26T06:29:05.430Z,33.00
2022-09-26T06:31:41.825Z,33.00
2022-09-26T06:34:13.439Z,35.25
2022-09-26T06:36:55.885Z,33.25
2022-09-26T06:39:25.379Z,33.75
2022-09-26T06:41:57.263Z,33.00
2022-09-26T06:44:37.234Z,33.75
2022-09-26T06:47:36.140Z,36.00
2022-09-26T06:50:24.498Z,33.25
2022-09-26T06:52:57.471Z,34.50
2022-09-26T06:55:27.723Z,33.00
2022-09-26T06:57:57.188Z,34.75
2022-09-26T07:00:32.390Z,34.75
2022-09-26T07:03:20.946Z,36.00
2022-09-26T07:05:59.340Z,34.25
2022-09-26T07:08:57.220Z,38.25
2022-09-26T07:11:56.150Z,36.25
2022-09-26T07:14:10.333Z,38.50
2022-09-26T07:16:40.268Z,37.00
2022-09-26T07:19:25.192Z,35.00
2022-09-26T07:22:03.830Z,36.00
2022-09-26T07:24:38.723Z,39.00
2022-09-26T07:27:08.378Z,38.75
2022-09-26T07:29:37.935Z,36.00
2022-09-26T07:32:07.933Z,39.50
2022-09-26T07:34:51.277Z,39.25
2022-09-26T07:37:21.546Z,38.75
2022-09-26T07:39:54.129Z,36.50
2022-09-26T07:42:24.856Z,37.75
2022-09-26T07:45:20.872Z,36.50
2022-09-26T07:48:02.091Z,40.50
2022-09-26T07:51:03.504Z,38.25
2022-09-26T07:53:53.950Z,38.50
2022-09-26T07:56:44.557Z,39.75
2022-09-26T07:59:24.104Z,39.00
2022-09-26T08:02:35.315Z,40.25
2022-09-26T08:05:07.471Z,38.00
2022-09-26T08:07:36.795Z,39.75
2022-09-26T08:10:21.434Z,39.00
2022-09-26T08:13:11.276Z,38.75
2022-09-26T08:16:05.057Z,39.25
2022-09-26T08:18:39.300Z,40.25
2022-09-26T08:21:09.477Z,40.25
2022-09-26T08:23:38.929Z,39.50
2022-09-26T08:26:28.374Z,41.50
2022-09-26T08:29:17.123Z,39.75
2022-09-26T08:31:49.308Z,37.00
2022-09-26T08:34:24.133Z,42.50
2022-09-26T08:37:30.087Z,40.00
2022-09-26T08:40:17.371Z,41.50
2022-09-26T08:43:31.427Z,43.75
2022-09-26T08:46:56.402Z,39.75
2022-09-26T08:50:05.737Z,42.50
2022-09-26T08:52:39.525Z,41.75
2022-09-26T08:55:29.123Z,38.00
2022-09-26T08:57:58.605Z,38.50
2022-09-26T09:00:28.923Z,41.25
2022-09-26T09:03:23.844Z,39.00
2022-09-26T09:05:57.935Z,38.75
2022-09-26T09:08:32.566Z,40.00
2022-09-26T09:11:21.846Z,38.00
2022-09-26T09:14:14.791Z,39.25
2022-09-26T09:17:16.523Z,39.50
2022-09-26T09:20:22.776Z,39.00
2022-09-26T09:23:14.511Z,35.25
2022-09-26T09:25:50.610Z,37.25
2022-09-26T09:28:25.002Z,38.25
2022-09-26T09:30:59.998Z,35.50
2022-09-26T09:33:42.681Z,36.00
2022-09-26T09:36:55.850Z,36.50
2022-09-26T09:39:52.906Z,36.75
2022-09-26T09:42:45.312Z,36.00
2022-09-26T09:45:35.589Z,37.75
2022-09-26T09:48:05.912Z,34.75
2022-09-26T09:50:35.252Z,33.50
2022-09-26T09:53:15.499Z,35.75
2022-09-26T09:56:09.353Z,35.00
2022-09-26T09:58:45.112Z,35.00
2022-09-26T10:01:20.936Z,34.25
2022-09-26T10:03:51.756Z,33.75
2022-09-26T10:06:45.747Z,37.50
2022-09-26T10:09:35.230Z,34.25
2022-09-26T10:12:34.391Z,35.25
2022-09-26T10:15:23.514Z,34.75
2022-09-26T10:18:25.300Z,36.25
2022-09-26T10:21:14.037Z,39.50
2022-09-26T10:23:49.132Z,38.00
2022-09-26T10:26:39.106Z,40.50
2022-09-26T10:29:36.512Z,37.00
2022-09-26T10:32:07.843Z,42.00
2022-09-26T10:34:39.870Z,38.75
2022-09-26T10:37:26.902Z,40.25
2022-09-26T10:40:36.793Z,40.75
2022-09-26T10:43:44.948Z,41.00
2022-09-26T10:46:29.537Z,42.00
2022-09-26T10:49:38.617Z,44.50
2022-09-26T10:52:39.901Z,46.25
2022-09-26T10:55:13.932Z,44.00
2022-09-26T10:57:47.165Z,48.00
2022-09-26T11:00:40.332Z,47.67
2022-09-26T11:03:19.023Z,50.67
2022-09-26T11:06:07.900Z,49.00
2022-09-26T11:08:39.715Z,52.33
2022-09-26T11:11:23.786Z,49.67
2022-09-26T11:14:08.222Z,53.00
2022-09-26T11:16:46.277Z,53.67
2022-09-26T11:19:22.059Z,49.00
2022-09-26T11:22:03.183Z,53.00
2022-09-26T11:24:47.181Z,53.00
2022-09-26T11:27:35.047Z,53.00
2022-09-26T11:30:13.609Z,50.33
2022-09-26T11:33:00.418Z,55.33
2022-09-26T11:35:45.244Z,53.00
2022-09-26T11:38:15.697Z,53.67
2022-09-26T11:40:45.367Z,55.33
2022-09-26T11:43:37.861Z,51.33
2022-09-26T11:46:32.657Z,52.00
2022-09-26T11:49:36.821Z,51.67
2022-09-26T11:52:44.295Z,50.00
2022-09-26T11:55:22.594Z,48.25
2022-09-26T11:58:03.633Z,48.00
2022-09-26T12:00:48.909Z,44.75
2022-09-26T12:03:21.402Z,43.75
2022-09-26T12:05:55.045Z,46.50
2022-09-26T12:08:37.946Z,44.00
2022-09-26T12:11:08.247Z,45.25
2022-09-26T12:13:55.520Z,45.00
2022-09-26T12:16:37.302Z,44.25
2022-09-26T12:19:08.110Z,43.75
2022-09-26T12:22:08.329Z,40.50
2022-09-26T12:24:41.777Z,44.50
2022-09-26T12:27:21.731Z,38.75
2022-09-26T12:29:58.091Z,42.25
2022-09-26T12:32:53.827Z,41.50
2022-09-26T12:35:45.409Z,38.50
2022-09-26T12:38:41.257Z,37.50
2022-09-26T12:41:21.359Z,40.00
2022-09-26T12:43:54.587Z,39.00
2022-09-26T12:46:42.332Z,38.00
2022-09-26T12:49:23.760Z,39.50
2022-09-26T12:51:56.209Z,42.25
2022-09-26T12:54:38.098Z,40.50
2022-09-26T12:57:27.735Z,37.75
2022-09-26T13:00:03.341Z,40.00
2022-09-26T13:02:34.863Z,38.50
2022-09-26T13:05:19.142Z,38.00
2022-09-26T13:07:55.002Z,38.25
2022-09-26T13:10:34.588Z,37.00
2022-09-26T13:13:26.378Z,38.00
2022-09-26T13:16:14.594Z,36.00
2022-09-26T13:18:52.369Z,37.25
2022-09-26T13:21:26.298Z,38.50
2022-09-26T13:23:59.199Z,37.00
2022-09-26T13:26:31.842Z,38.25
2022-09-26T13:29:17.913Z,38.75
2022-09-26T13:31:50.690Z,35.50
2022-09-26T13:34:20.745Z,34.25
2022-09-26T13:36:51.591Z,36.00
2022-09-26T13:39:41.166Z,38.00
2022-09-26T13:42:29.012Z,34.00
2022-09-26T13:45:21.586Z,35.00
2022-09-26T13:48:31.423Z,36.00
2022-09-26T13:51:27.540Z,39.00
2022-09-26T13:54:18.125Z,37.50
2022-09-26T13:56:51.791Z,38.00
2022-09-26T13:59:21.303Z,35.75
2022-09-26T14:02:09.054Z,34.00
2022-09-26T14:04:38.643Z,37.50
2022-09-26T14:07:34.099Z,37.00
2022-09-26T14:10:09.004Z,33.00
2022-09-26T14:12:55.598Z,35.25
2022-09-26T14:15:30.196Z,35.25
2022-09-26T14:18:10.478Z,36.00
2022-09-26T14:20:52.159Z,34.00
2022-09-26T14:23:42.152Z,34.00
2022-09-26T14:26:15.500Z,35.75
2022-09-26T14:28:55.917Z,35.50
2022-09-26T14:31:28.971Z,34.25
2022-09-26T14:34:15.989Z,37.50
2022-09-26T14:36:46.705Z,33.50
2022-09-26T14:39:33.557Z,35.75
2022-09-26T14:42:13.204Z,36.00
2022-09-26T14:44:49.475Z,33.25
2022-09-26T14:47:19.098Z,36.00
2022-09-26T14:49:55.626Z,34.00
2022-09-26T14:52:26.868Z,33.75
2022-09-26T14:54:58.043Z,34.25
2022-09-26T14:57:30.464Z,35.50
2022-09-26T15:00:01.863Z,37.00
2022-09-26T15:02:39.859Z,34.75
2022-09-26T15:05:13.010Z,36.00
2022-09-26T15:07:54.129Z,34.50
2022-09-26T15:10:25.760Z,34.50
2022-09-26T15:13:13.556Z,34.00
2022-09-26T15:15:52.801Z,34.00
2022-09-26T15:18:28.672Z,36.00
2022-09-26T15:21:04.988Z,35.25
2022-09-26T15:23:36.520Z,34.25
2022-09-26T15:26:06.862Z,35.50
2022-09-26T15:28:39.638Z,37.25
2022-09-26T15:31:27.333Z,34.00
2022-09-26T15:33:57.139Z,39.25
2022-09-26T15:36:29.343Z,35.25
2022-09-26T15:38:59.834Z,36.25
2022-09-26T15:41:47.301Z,33.50
2022-09-26T15:44:25.725Z,34.75
2022-09-26T15:46:55.686Z,36.75
2022-09-26T15:49:30.004Z,36.00
2022-09-26T15:51:59.518Z,36.00
2022-09-26T15:54:31.832Z,35.50
2022-09-26T15:57:08.378Z,38.00
2022-09-26T15:59:42.230Z,33.75
2022-09-26T16:02:39.433Z,35.75
2022-09-26T16:05:12.909Z,35.50
2022-09-26T16:07:49.213Z,37.75
2022-09-26T16:10:29.809Z,36.50
2022-09-26T16:13:02.079Z,37.25
2022-09-26T16:15:33.495Z,36.75
2022-09-26T16:18:03.079Z,35.25
2022-09-26T16:20:34.792Z,37.75
2022-09-26T16:23:05.931Z,34.75
2022-09-26T16:25:54.306Z,36.25
2022-09-26T16:28:40.907Z,35.50
2022-09-26T16:31:19.148Z,37.75
2022-09-26T16:33:51.812Z,35.50
2022-09-26T16:36:37.453Z,36.25
2022-09-26T16:39:18.884Z,38.00
2022-09-26T16:42:03.557Z,35.50
2022-09-26T16:44:40.773Z,35.25
2022-09-26T16:47:28.372Z,36.00
2022-09-26T16:49:58.064Z,37.50
2022-09-26T16:52:37.661Z,37.50
2022-09-26T16:55:08.016Z,34.00
2022-09-26T16:57:40.011Z,35.75
2022-09-26T17:00:35.056Z,37.00
2022-09-26T17:03:06.250Z,35.50
2022-09-26T17:05:36.031Z,34.25
2022-09-26T17:08:05.693Z,35.00
2022-09-26T17:10:39.692Z,34.25
2022-09-26T17:13:14.202Z,36.00
2022-09-26T17:15:45.090Z,36.00
2022-09-26T17:18:16.983Z,35.75
2022-09-26T17:20:47.435Z,36.50
2022-09-26T17:23:38.766Z,37.00
2022-09-26T17:26:08.224Z,35.50
2022-09-26T17:28:39.110Z,35.50
2022-09-26T17:31:10.318Z,34.50
2022-09-26T17:33:41.939Z,35.50
2022-09-26T17:36:19.509Z,35.50
2022-09-26T17:38:49.175Z,38.00
2022-09-26T17:41:18.764Z,37.00
2022-09-26T17:43:48.237Z,35.25
2022-09-26T17:46:17.810Z,36.75
2022-09-26T17:48:47.302Z,35.25
2022-09-26T17:51:16.921Z,34.75
2022-09-26T17:53:50.906Z,34.50
2022-09-26T17:56:21.686Z,37.00
2022-09-26T17:58:52.107Z,34.00
2022-09-26T18:01:35.567Z,35.75
2022-09-26T18:04:13.969Z,35.00
2022-09-26T18:06:44.250Z,34.25
2022-09-26T18:09:22.238Z,36.50
2022-09-26T18:12:02.025Z,35.50
2022-09-26T18:14:34.053Z,36.00
2022-09-26T18:17:04.597Z,35.75
2022-09-26T18:19:36.450Z,36.00
2022-09-26T18:22:06.677Z,35.25
2022-09-26T18:24:36.297Z,34.00
2022-09-26T18:27:08.468Z,34.25
2022-09-26T18:29:40.548Z,36.00
2022-09-26T18:32:23.086Z,36.00
2022-09-26T18:34:53.374Z,35.50
2022-09-26T18:37:22.728Z,37.75
2022-09-26T18:39:55.087Z,34.00
2022-09-26T18:42:26.567Z,36.50
2022-09-26T18:45:05.553Z,34.25
2022-09-26T18:47:37.547Z,37.25
2022-09-26T18:50:07.654Z,33.50
2022-09-26T18:52:37.150Z,35.75
2022-09-26T18:55:25.732Z,37.00
2022-09-26T18:58:13.232Z,34.00
2022-09-26T19:00:42.550Z,36.50
2022-09-26T19:03:12.214Z,34.50
2022-09-26T19:05:41.780Z,36.50
2022-09-26T19:08:20.214Z,37.50
2022-09-26T19:10:49.473Z,38.00
2022-09-26T19:13:20.319Z,36.00
2022-09-26T19:15:51.538Z,35.25
2022-09-26T19:18:21.077Z,37.75
2022-09-26T19:20:50.828Z,37.00
2022-09-26T19:23:20.431Z,38.25
2022-09-26T19:25:50.008Z,34.25
2022-09-26T19:28:23.217Z,34.50
2022-09-26T19:30:52.740Z,36.00
2022-09-26T19:33:22.517Z,35.00
2022-09-26T19:35:51.923Z,36.25
2022-09-26T19:38:26.120Z,37.00
2022-09-26T19:40:55.645Z,35.75
2022-09-26T19:43:25.245Z,36.25
2022-09-26T19:45:55.708Z,35.50
2022-09-26T19:48:25.637Z,38.25
2022-09-26T19:50:55.053Z,35.50
2022-09-26T19:53:25.671Z,38.25
2022-09-26T19:55:56.944Z,36.25
2022-09-26T19:58:27.395Z,36.50
2022-09-26T20:01:03.255Z,39.00
2022-09-26T20:03:41.271Z,36.00
2022-09-26T20:06:19.210Z,35.50
2022-09-26T20:08:49.892Z,35.00
2022-09-26T20:11:19.210Z,35.25
2022-09-26T20:14:08.345Z,36.50
2022-09-26T20:16:40.081Z,36.00
2022-09-26T20:19:12.986Z,36.75
2022-09-26T20:21:43.014Z,35.75
2022-09-26T20:24:16.597Z,37.50
2022-09-26T20:26:47.005Z,38.00
2022-09-26T20:29:17.170Z,35.75
2022-09-26T20:31:48.782Z,36.00
2022-09-26T20:34:18.677Z,35.75
2022-09-26T20:36:50.221Z,36.50
2022-09-26T20:39:21.731Z,37.25
2022-09-26T20:41:51.778Z,51.67
2022-09-26T20:44:21.314Z,55.33
2022-09-26T20:46:52.236Z,56.00
2022-09-26T20:49:23.875Z,53.67
2022-09-26T20:51:54.684Z,53.33
2022-09-26T20:54:26.476Z,56.67
2022-09-26T20:56:56.617Z,56.33
2022-09-26T20:59:27.035Z,55.33
2022-09-26T21:01:58.364Z,52.00
2022-09-26T21:04:32.750Z,51.67
2022-09-26T21:07:02.321Z,50.00
2022-09-26T21:09:32.569Z,49.33
2022-09-26T21:12:02.371Z,44.75
2022-09-26T21:14:32.498Z,45.25
2022-09-26T21:17:01.985Z,40.00
2022-09-26T21:19:33.969Z,39.25
2022-09-26T21:22:16.158Z,38.75
2022-09-26T21:24:52.286Z,37.25
2022-09-26T21:27:21.822Z,34.25
2022-09-26T21:29:51.176Z,33.75
2022-09-26T21:32:22.824Z,33.00
2022-09-26T21:35:01.248Z,33.00
2022-09-26T21:37:31.144Z,30.50
2022-09-26T21:40:00.611Z,31.25
2022-09-26T21:42:30.221Z,31.00
2022-09-26T21:45:02.931Z,29.75
2022-09-26T21:47:33.263Z,30.50
2022-09-26T21:50:02.758Z,30.00
2022-09-26T21:52:38.324Z,28.50
2022-09-26T21:55:09.384Z,28.00
2022-09-26T21:57:43.167Z,26.50
2022-09-26T22:00:13.690Z,25.75
2022-09-26T22:02:43.221Z,27.00
2022-09-26T22:05:13.823Z,27.00
2022-09-26T22:07:43.125Z,27.00
2022-09-26T22:10:12.467Z,27.00
2022-09-26T22:12:42.502Z,27.00
2022-09-26T22:15:12.067Z,27.00
2022-09-26T22:17:41.537Z,26.25
2022-09-26T22:20:11.145Z,27.00
2022-09-26T22:22:40.782Z,27.75
2022-09-26T22:25:10.273Z,27.00
2022-09-26T22:27:40.875Z,25.50
2022-09-26T22:30:10.704Z,25.00
2022-09-26T22:32:40.670Z,23.00
2022-09-26T22:35:09.996Z,23.00
2022-09-26T22:37:40.456Z,25.00
2022-09-26T22:40:10.095Z,22.25
2022-09-26T22:42:39.549Z,23.00
2022-09-26T22:45:09.109Z,24.75
2022-09-26T22:47:38.660Z,23.00
2022-09-26T22:50:08.028Z,23.50
2022-09-26T22:52:38.279Z,32.50
2022-09-26T22:55:09.230Z,31.00
2022-09-26T22:57:40.415Z,31.00
2022-09-26T23:00:10.345Z,32.00
2022-09-26T23:02:40.226Z,34.00
2022-09-26T23:05:09.809Z,33.75
2022-09-26T23:07:39.332Z,37.75
2022-09-26T23:10:08.926Z,38.00
2022-09-26T23:12:41.697Z,34.00
2022-09-26T23:15:11.411Z,36.00
2022-09-26T23:17:40.955Z,35.75
2022-09-26T23:20:10.623Z,35.00
2022-09-26T23:22:42.860Z,34.75
2022-09-26T23:25:15.840Z,38.00
2022-09-26T23:27:46.792Z,37.25
2022-09-26T23:30:16.335Z,40.00
2022-09-26T23:32:45.745Z,39.00
2022-09-26T23:35:16.154Z,35.00
2022-09-26T23:37:45.656Z,35.00
2022-09-26T23:40:15.241Z,36.00
2022-09-26T23:42:44.700Z,36.00
2022-09-26T23:45:14.148Z,39.25
2022-09-26T23:47:43.404Z,34.25
2022-09-26T23:50:12.678Z,38.00
2022-09-26T23:52:42.160Z,38.25
2022-09-26T23:55:11.785Z,36.00
2022-09-26T23:57:41.868Z,39.50
